Afric Star — A8KJ8 — position and weather

sailwx.info

Track history (hours):
 
Tides and Currents Weather Stations Pressure Air Temp Water Temp Dewpoint Dewpoint Depression Visibility Wind Speed Wind Dir Waves Ship Positions

Afric Star

Last reported at 2014-Jul-28 05:13 UTC. Time now 2014-Aug-30 12:30 UTC.
Position N 58°40' W 006°42'.
Warning: this ship's position is 33 days out of date.

Length 158 m; draft 7 m.

Type: Cargo ship. MMSI: 636013069.

Date/timePositionNaut miles runAvg speedWind from/ knotsBaromVisibWave heightAir tempDewpointWater temp
2014-Jul-28 05:13N 58°40' W 006°42'1515.3
2014-Jul-28 04:13N 58°42' W 006°12'1015.2
2014-Jul-28 03:34N 58°42' W 005°53'5016.6
2014-Jul-28 00:33N 58°43' W 004°17'1615.9
2014-Jul-27 23:33N 58°43' W 003°47'1514.8
2014-Jul-27 22:33N 58°43' W 003°18'1211.5
2014-Jul-27 21:29N 58°42' W 002°54'39415.7
2014-Jul-26 20:27N 57°44' E 009°25'1415.7
2014-Jul-26 19:33N 57°47' E 009°50'1616.2
2014-Jul-26 18:33N 57°49' E 010°20'1616.0
2014-Jul-26 17:33N 57°47' E 010°50'1616.3
2014-Jul-26 16:33N 57°36' E 011°12'4815.8
2014-Jul-26 13:33N 56°53' E 011°50'2016.5
2014-Jul-26 12:22N 56°34' E 011°58'1316.0
2014-Jul-26 11:33N 56°21' E 012°04'1515.3
2014-Jul-26 10:33N 56°11' E 012°24'1515.4
2014-Jul-26 09:33N 55°59' E 012°42'1313.0
2014-Jul-26 08:33N 55°46' E 012°43'1 1.1
2014-Jul-26 07:33N 55°45' E 012°42'0 0.0
2014-Jul-26 06:33N 55°45' E 012°42'2 2.3
2014-Jul-26 05:33N 55°42' E 012°41'1010.0
2014-Jul-26 04:33N 55°33' E 012°43'1413.6
2014-Jul-26 03:33N 55°19' E 012°41'3415.9
2014-Jul-26 01:24N 55°14' E 013°41'1416.2
2014-Jul-26 00:33N 55°13' E 014°05'1514.8
2014-Jul-25 23:33N 55°21' E 014°27'1615.8
2014-Jul-25 22:33N 55°30' E 014°50'1615.8
2014-Jul-25 21:34N 55°38' E 015°13'1616.0
2014-Jul-25 20:34N 55°46' E 015°38'1616.3
2014-Jul-25 19:34N 55°55' E 016°03'1616.2
2014-Jul-25 18:34N 56°03' E 016°28'1616.2
2014-Jul-25 17:34N 56°12' E 016°52'1616.1
2014-Jul-25 16:34N 56°21' E 017°15'1616.2
2014-Jul-25 15:34N 56°31' E 017°38'1616.2
2014-Jul-25 14:33N 56°41' E 018°02'1616.2
2014-Jul-25 13:33N 56°51' E 018°25'1616.2
2014-Jul-25 12:34N 57°04' E 018°43'1616.1
2014-Jul-25 11:33N 57°17' E 019°01'6716.1
2014-Jul-25 07:26N 58°11' E 020°14'1416.1
2014-Jul-25 06:33N 58°22' E 020°31'1616.4
2014-Jul-25 05:34N 58°35' E 020°49'1817.7
2014-Jul-25 04:34N 58°49' E 021°09'1616.4
2014-Jul-25 03:33N 59°02' E 021°28'1616.1
2014-Jul-25 02:33N 59°14' E 021°50'1616.0
2014-Jul-25 01:33N 59°24' E 022°14'1615.9
2014-Jul-25 00:33N 59°32' E 022°42'1616.5
2014-Jul-24 23:34N 59°37' E 023°13'1616.3
2014-Jul-24 22:33N 59°41' E 023°44'1716.6
2014-Jul-24 21:34N 59°46' E 024°15'1816.6
2014-Jul-24 20:28N 59°50' E 024°50'1616.6
2014-Jul-24 19:30N 59°53' E 025°21'1616.5
2014-Jul-24 18:33N 59°57' E 025°51'1616.4
2014-Jul-24 17:34N 60°00' E 026°23'1616.0
2014-Jul-24 16:33N 60°00' E 026°56'9713.9
2014-Jul-24 09:33N 59°53' E 030°09'2 2.1
2014-Jul-24 08:26N 59°54' E 030°13'0 0.0
2014-Jul-24 07:17N 59°54' E 030°13'0 0.0
2014-Jul-24 02:28N 59°54' E 030°13'0 0.0
2014-Jul-24 01:31N 59°54' E 030°13'0 0.0
2014-Jul-24 00:31N 59°54' E 030°13'0 0.0
2014-Jul-23 23:28N 59°54' E 030°13'0 0.0
2014-Jul-23 22:31N 59°54' E 030°13'0 0.0
2014-Jul-23 21:28N 59°54' E 030°13'0 0.0
2014-Jul-23 20:28N 59°54' E 030°13'0 0.0
2014-Jul-23 19:22N 59°54' E 030°13'0 0.0
2014-Jul-23 18:22N 59°54' E 030°13'0 0.0
2014-Jul-23 17:31N 59°54' E 030°13'0 0.0
2014-Jul-23 16:31N 59°54' E 030°13'0 0.0
2014-Jul-23 15:28N 59°54' E 030°13'0 0.0
2014-Jul-23 14:28N 59°54' E 030°13'0 0.0
2014-Jul-23 13:31N 59°54' E 030°13'0 0.0
2014-Jul-23 11:28N 59°54' E 030°13'0 0.0
2014-Jul-23 10:28N 59°54' E 030°13'0 0.0
2014-Jul-23 09:25N 59°54' E 030°13'0 0.0
2014-Jul-23 07:13N 59°54' E 030°13'0 0.0
2014-Jul-23 06:22N 59°54' E 030°13'0 0.0
2014-Jul-23 05:07N 59°54' E 030°13'0 0.0
2014-Jul-23 04:25N 59°54' E 030°13'0 0.0
2014-Jul-23 03:31N 59°54' E 030°13'0 0.0
2014-Jul-23 02:31N 59°54' E 030°13'0 0.0
2014-Jul-23 01:31N 59°54' E 030°13'0 0.0
2014-Jul-23 00:28N 59°54' E 030°13'0 0.0
2014-Jul-22 23:22N 59°54' E 030°13'0 0.0
2014-Jul-22 22:25N 59°54' E 030°13'0 0.0
2014-Jul-22 21:31N 59°54' E 030°13'0 0.0
2014-Jul-22 20:31N 59°54' E 030°13'0 0.0
2014-Jul-22 19:19N 59°54' E 030°13'0 0.0
2014-Jul-22 18:30N 59°54' E 030°13'0 0.0
2014-Jul-22 15:18N 59°54' E 030°13'0 0.0
2014-Jul-22 12:27N 59°54' E 030°13'0 0.0
2014-Jul-22 11:30N 59°54' E 030°13'0 0.0
2014-Jul-22 10:33N 59°54' E 030°13'0 0.0
2014-Jul-22 09:33N 59°54' E 030°13'0 0.0
2014-Jul-22 08:30N 59°54' E 030°13'0 0.0
2014-Jul-22 07:30N 59°54' E 030°13'0 0.0
2014-Jul-22 06:30N 59°54' E 030°13'0 0.0
2014-Jul-22 05:21N 59°54' E 030°13'0 0.0
2014-Jul-22 04:30N 59°54' E 030°13'0 0.0
2014-Jul-22 03:27N 59°54' E 030°13'0 0.0
2014-Jul-22 02:33N 59°54' E 030°13'0 0.0
2014-Jul-22 01:33N 59°54' E 030°13'0 0.0
2014-Jul-22 00:30N 59°54' E 030°13'0 0.0
2014-Jul-21 23:30N 59°54' E 030°13'0 0.0
2014-Jul-21 22:21N 59°54' E 030°13'0 0.0
2014-Jul-21 21:33N 59°54' E 030°13'0 0.0
2014-Jul-21 20:33N 59°54' E 030°13'0 0.0
2014-Jul-21 20:18N 59°54' E 030°13'0 0.0
2014-Jul-21 19:32N 59°54' E 030°13'0 0.0
2014-Jul-21 18:32N 59°54' E 030°13'0 0.0
2014-Jul-21 17:29N 59°54' E 030°13'0 0.0
2014-Jul-21 16:26N 59°54' E 030°13'0 0.0
2014-Jul-21 15:28N 59°54' E 030°13'0 0.0
2014-Jul-21 14:31N 59°54' E 030°13'0 0.0
2014-Jul-21 12:28N 59°54' E 030°13'0 0.0
2014-Jul-21 11:13N 59°54' E 030°13'0 0.0
2014-Jul-21 06:31N 59°54' E 030°13'0 0.0
2014-Jul-21 05:10N 59°54' E 030°13'0 0.0
2014-Jul-21 04:31N 59°54' E 030°13'0 0.0
2014-Jul-21 03:28N 59°54' E 030°13'0 0.0
2014-Jul-21 02:33N 59°54' E 030°13'89 7.4
2014-Jul-20 14:29N 60°01' E 027°16'1414.6
2014-Jul-20 13:34N 59°59' E 026°49'1515.4
2014-Jul-20 12:34N 59°57' E 026°18'1515.4
2014-Jul-20 11:34N 59°53' E 025°48'5215.3
2014-Jul-20 08:10N 59°41' E 024°08'915.2
2014-Jul-20 07:33N 59°38' E 023°50'1515.2
2014-Jul-20 06:33N 59°33' E 023°22'1515.5
2014-Jul-20 05:33N 59°28' E 022°53'15915.5
2014-Jul-19 19:16N 57°30' E 019°29'1715.6
2014-Jul-19 18:10N 57°16' E 019°10'915.6
2014-Jul-19 17:34N 57°09' E 018°59'1615.6
2014-Jul-19 16:34N 56°56' E 018°42'1615.5
2014-Jul-19 15:34N 56°45' E 018°23'1615.7
2014-Jul-19 14:33N 56°35' E 018°01'1616.1
2014-Jul-19 13:33N 56°25' E 017°38'2215.9
2014-Jul-19 12:09N 56°11' E 017°06'915.7
2014-Jul-19 11:34N 56°05' E 016°53'1515.3
2014-Jul-19 10:34N 55°57' E 016°30'1815.3
2014-Jul-19 09:25N 55°49' E 016°02'1315.3
2014-Jul-19 08:34N 55°43' E 015°42'1515.3
2014-Jul-19 07:33N 55°36' E 015°18'1515.3
2014-Jul-19 06:33N 55°28' E 014°54'1515.3
2014-Jul-19 05:33N 55°18' E 014°33'1515.2
2014-Jul-19 04:34N 55°07' E 014°16'1514.8
2014-Jul-19 03:34N 54°58' E 013°55'1515.5
2014-Jul-19 02:34N 54°53' E 013°30'1515.2
2014-Jul-19 01:34N 54°49' E 013°05'1515.1
2014-Jul-19 00:34N 54°44' E 012°40'1515.0
2014-Jul-18 23:34N 54°35' E 012°19'1413.6
2014-Jul-18 22:34N 54°25' E 012°04'1514.8
2014-Jul-18 21:34N 54°26' E 011°39'1514.9
2014-Jul-18 20:34N 54°33' E 011°16'1514.9
2014-Jul-18 19:34N 54°41' E 010°54'1414.2
2014-Jul-18 18:34N 54°55' E 010°54'8713.8
2014-Jul-18 12:16N 56°20' E 011°25'1115.4
2014-Jul-18 11:33N 56°29' E 011°35'1615.7
2014-Jul-18 10:33N 56°43' E 011°48'1514.5
2014-Jul-18 09:32N 56°57' E 011°43'1515.6
2014-Jul-18 08:33N 57°12' E 011°34'1515.2
2014-Jul-18 07:33N 57°26' E 011°25'1514.9
2014-Jul-18 06:33N 57°37' E 011°05'1515.3
2014-Jul-18 05:34N 57°47' E 010°44'  
Track history (hours):
 
Tides and Currents Weather Stations Pressure Air Temp Water Temp Dewpoint Dewpoint Depression Visibility Wind Speed Wind Dir Waves Ship Positions

Afric Star

Last reported at 2014-Jul-28 05:13 UTC. Time now 2014-Aug-30 12:30 UTC.
Position N 58°40' W 006°42'.
Warning: this ship's position is 33 days out of date.

Length 158 m; draft 7 m.

Type: Cargo ship. MMSI: 636013069.

Date/timePositionNaut miles runAvg speedWind from/ knotsBaromVisibWave heightAir tempDewpointWater temp
2014-Jul-28 05:13N 58°40' W 006°42'1515.3
2014-Jul-28 04:13N 58°42' W 006°12'1015.2
2014-Jul-28 03:34N 58°42' W 005°53'5016.6
2014-Jul-28 00:33N 58°43' W 004°17'1615.9
2014-Jul-27 23:33N 58°43' W 003°47'1514.8
2014-Jul-27 22:33N 58°43' W 003°18'1211.5
2014-Jul-27 21:29N 58°42' W 002°54'39415.7
2014-Jul-26 20:27N 57°44' E 009°25'1415.7
2014-Jul-26 19:33N 57°47' E 009°50'1616.2
2014-Jul-26 18:33N 57°49' E 010°20'1616.0
2014-Jul-26 17:33N 57°47' E 010°50'1616.3
2014-Jul-26 16:33N 57°36' E 011°12'4815.8
2014-Jul-26 13:33N 56°53' E 011°50'2016.5
2014-Jul-26 12:22N 56°34' E 011°58'1316.0
2014-Jul-26 11:33N 56°21' E 012°04'1515.3
2014-Jul-26 10:33N 56°11' E 012°24'1515.4
2014-Jul-26 09:33N 55°59' E 012°42'1313.0
2014-Jul-26 08:33N 55°46' E 012°43'1 1.1
2014-Jul-26 07:33N 55°45' E 012°42'0 0.0
2014-Jul-26 06:33N 55°45' E 012°42'2 2.3
2014-Jul-26 05:33N 55°42' E 012°41'1010.0
2014-Jul-26 04:33N 55°33' E 012°43'1413.6
2014-Jul-26 03:33N 55°19' E 012°41'3415.9
2014-Jul-26 01:24N 55°14' E 013°41'1416.2
2014-Jul-26 00:33N 55°13' E 014°05'1514.8
2014-Jul-25 23:33N 55°21' E 014°27'1615.8
2014-Jul-25 22:33N 55°30' E 014°50'1615.8
2014-Jul-25 21:34N 55°38' E 015°13'1616.0
2014-Jul-25 20:34N 55°46' E 015°38'1616.3
2014-Jul-25 19:34N 55°55' E 016°03'1616.2
2014-Jul-25 18:34N 56°03' E 016°28'1616.2
2014-Jul-25 17:34N 56°12' E 016°52'1616.1
2014-Jul-25 16:34N 56°21' E 017°15'1616.2
2014-Jul-25 15:34N 56°31' E 017°38'1616.2
2014-Jul-25 14:33N 56°41' E 018°02'1616.2
2014-Jul-25 13:33N 56°51' E 018°25'1616.2
2014-Jul-25 12:34N 57°04' E 018°43'1616.1
2014-Jul-25 11:33N 57°17' E 019°01'6716.1
2014-Jul-25 07:26N 58°11' E 020°14'1416.1
2014-Jul-25 06:33N 58°22' E 020°31'1616.4
2014-Jul-25 05:34N 58°35' E 020°49'1817.7
2014-Jul-25 04:34N 58°49' E 021°09'1616.4
2014-Jul-25 03:33N 59°02' E 021°28'1616.1
2014-Jul-25 02:33N 59°14' E 021°50'1616.0
2014-Jul-25 01:33N 59°24' E 022°14'1615.9
2014-Jul-25 00:33N 59°32' E 022°42'1616.5
2014-Jul-24 23:34N 59°37' E 023°13'1616.3
2014-Jul-24 22:33N 59°41' E 023°44'1716.6
2014-Jul-24 21:34N 59°46' E 024°15'1816.6
2014-Jul-24 20:28N 59°50' E 024°50'1616.6
2014-Jul-24 19:30N 59°53' E 025°21'1616.5
2014-Jul-24 18:33N 59°57' E 025°51'1616.4
2014-Jul-24 17:34N 60°00' E 026°23'1616.0
2014-Jul-24 16:33N 60°00' E 026°56'9713.9
2014-Jul-24 09:33N 59°53' E 030°09'2 2.1
2014-Jul-24 08:26N 59°54' E 030°13'0 0.0
2014-Jul-24 07:17N 59°54' E 030°13'0 0.0
2014-Jul-24 02:28N 59°54' E 030°13'0 0.0
2014-Jul-24 01:31N 59°54' E 030°13'0 0.0
2014-Jul-24 00:31N 59°54' E 030°13'0 0.0
2014-Jul-23 23:28N 59°54' E 030°13'0 0.0
2014-Jul-23 22:31N 59°54' E 030°13'0 0.0
2014-Jul-23 21:28N 59°54' E 030°13'0 0.0
2014-Jul-23 20:28N 59°54' E 030°13'0 0.0
2014-Jul-23 19:22N 59°54' E 030°13'0 0.0
2014-Jul-23 18:22N 59°54' E 030°13'0 0.0
2014-Jul-23 17:31N 59°54' E 030°13'0 0.0
2014-Jul-23 16:31N 59°54' E 030°13'0 0.0
2014-Jul-23 15:28N 59°54' E 030°13'0 0.0
2014-Jul-23 14:28N 59°54' E 030°13'0 0.0
2014-Jul-23 13:31N 59°54' E 030°13'0 0.0
2014-Jul-23 11:28N 59°54' E 030°13'0 0.0
2014-Jul-23 10:28N 59°54' E 030°13'0 0.0
2014-Jul-23 09:25N 59°54' E 030°13'0 0.0
2014-Jul-23 07:13N 59°54' E 030°13'0 0.0
2014-Jul-23 06:22N 59°54' E 030°13'0 0.0
2014-Jul-23 05:07N 59°54' E 030°13'0 0.0
2014-Jul-23 04:25N 59°54' E 030°13'0 0.0
2014-Jul-23 03:31N 59°54' E 030°13'0 0.0
2014-Jul-23 02:31N 59°54' E 030°13'0 0.0
2014-Jul-23 01:31N 59°54' E 030°13'0 0.0
2014-Jul-23 00:28N 59°54' E 030°13'0 0.0
2014-Jul-22 23:22N 59°54' E 030°13'0 0.0
2014-Jul-22 22:25N 59°54' E 030°13'0 0.0
2014-Jul-22 21:31N 59°54' E 030°13'0 0.0
2014-Jul-22 20:31N 59°54' E 030°13'0 0.0
2014-Jul-22 19:19N 59°54' E 030°13'0 0.0
2014-Jul-22 18:30N 59°54' E 030°13'0 0.0
2014-Jul-22 15:18N 59°54' E 030°13'0 0.0
2014-Jul-22 12:27N 59°54' E 030°13'0 0.0
2014-Jul-22 11:30N 59°54' E 030°13'0 0.0
2014-Jul-22 10:33N 59°54' E 030°13'0 0.0
2014-Jul-22 09:33N 59°54' E 030°13'0 0.0
2014-Jul-22 08:30N 59°54' E 030°13'0 0.0
2014-Jul-22 07:30N 59°54' E 030°13'0 0.0
2014-Jul-22 06:30N 59°54' E 030°13'0 0.0
2014-Jul-22 05:21N 59°54' E 030°13'0 0.0
2014-Jul-22 04:30N 59°54' E 030°13'0 0.0
2014-Jul-22 03:27N 59°54' E 030°13'0 0.0
2014-Jul-22 02:33N 59°54' E 030°13'0 0.0
2014-Jul-22 01:33N 59°54' E 030°13'0 0.0
2014-Jul-22 00:30N 59°54' E 030°13'0 0.0
2014-Jul-21 23:30N 59°54' E 030°13'0 0.0
2014-Jul-21 22:21N 59°54' E 030°13'0 0.0
2014-Jul-21 21:33N 59°54' E 030°13'0 0.0
2014-Jul-21 20:33N 59°54' E 030°13'0 0.0
2014-Jul-21 20:18N 59°54' E 030°13'0 0.0
2014-Jul-21 19:32N 59°54' E 030°13'0 0.0
2014-Jul-21 18:32N 59°54' E 030°13'0 0.0
2014-Jul-21 17:29N 59°54' E 030°13'0 0.0
2014-Jul-21 16:26N 59°54' E 030°13'0 0.0
2014-Jul-21 15:28N 59°54' E 030°13'0 0.0
2014-Jul-21 14:31N 59°54' E 030°13'0 0.0
2014-Jul-21 12:28N 59°54' E 030°13'0 0.0
2014-Jul-21 11:13N 59°54' E 030°13'0 0.0
2014-Jul-21 06:31N 59°54' E 030°13'0 0.0
2014-Jul-21 05:10N 59°54' E 030°13'0 0.0
2014-Jul-21 04:31N 59°54' E 030°13'0 0.0
2014-Jul-21 03:28N 59°54' E 030°13'0 0.0
2014-Jul-21 02:33N 59°54' E 030°13'89 7.4
2014-Jul-20 14:29N 60°01' E 027°16'1414.6
2014-Jul-20 13:34N 59°59' E 026°49'1515.4
2014-Jul-20 12:34N 59°57' E 026°18'1515.4
2014-Jul-20 11:34N 59°53' E 025°48'5215.3
2014-Jul-20 08:10N 59°41' E 024°08'915.2
2014-Jul-20 07:33N 59°38' E 023°50'1515.2
2014-Jul-20 06:33N 59°33' E 023°22'1515.5
2014-Jul-20 05:33N 59°28' E 022°53'15915.5
2014-Jul-19 19:16N 57°30' E 019°29'1715.6
2014-Jul-19 18:10N 57°16' E 019°10'915.6
2014-Jul-19 17:34N 57°09' E 018°59'1615.6
2014-Jul-19 16:34N 56°56' E 018°42'1615.5
2014-Jul-19 15:34N 56°45' E 018°23'1615.7
2014-Jul-19 14:33N 56°35' E 018°01'1616.1
2014-Jul-19 13:33N 56°25' E 017°38'2215.9
2014-Jul-19 12:09N 56°11' E 017°06'915.7
2014-Jul-19 11:34N 56°05' E 016°53'1515.3
2014-Jul-19 10:34N 55°57' E 016°30'1815.3
2014-Jul-19 09:25N 55°49' E 016°02'1315.3
2014-Jul-19 08:34N 55°43' E 015°42'1515.3
2014-Jul-19 07:33N 55°36' E 015°18'1515.3
2014-Jul-19 06:33N 55°28' E 014°54'1515.3
2014-Jul-19 05:33N 55°18' E 014°33'1515.2
2014-Jul-19 04:34N 55°07' E 014°16'1514.8
2014-Jul-19 03:34N 54°58' E 013°55'1515.5
2014-Jul-19 02:34N 54°53' E 013°30'1515.2
2014-Jul-19 01:34N 54°49' E 013°05'1515.1
2014-Jul-19 00:34N 54°44' E 012°40'1515.0
2014-Jul-18 23:34N 54°35' E 012°19'1413.6
2014-Jul-18 22:34N 54°25' E 012°04'1514.8
2014-Jul-18 21:34N 54°26' E 011°39'1514.9
2014-Jul-18 20:34N 54°33' E 011°16'1514.9
2014-Jul-18 19:34N 54°41' E 010°54'1414.2
2014-Jul-18 18:34N 54°55' E 010°54'8713.8
2014-Jul-18 12:16N 56°20' E 011°25'1115.4
2014-Jul-18 11:33N 56°29' E 011°35'1615.7
2014-Jul-18 10:33N 56°43' E 011°48'1514.5
2014-Jul-18 09:32N 56°57' E 011°43'1515.6
2014-Jul-18 08:33N 57°12' E 011°34'1515.2
2014-Jul-18 07:33N 57°26' E 011°25'1514.9
2014-Jul-18 06:33N 57°37' E 011°05'1515.3
2014-Jul-18 05:34N 57°47' E 010°44'  

Dump ship's entire track history